British Harmony — MHMZ8 — position and weather

sailwx.info

Track history (hours):
 
Tides and Currents Weather Stations Pressure Air Temp Water Temp Dewpoint Dewpoint Depression Visibility Wind Speed Wind Dir Waves Ship Positions

British Harmony

Last reported at 2018-Jan-11 15:12 UTC. Time now 2018-Jan-22 00:40 UTC.
Position N 09°11' W 079°52'.
Warning: this ship's position is 10 days out of date.

Length 183.2 m; beam 32.2 m; draft 12.2 m.

Type: Tanker. MMSI: 232445000.

Date/timePositionNaut miles runAvg speedWind from/ knotsBaromVisibWave heightAir tempDewpointWater temp
2018-Jan-11 15:12N 09°11' W 079°52'2 8.6
2018-Jan-11 15:00N 09°12' W 079°54'3 0.8
2018-Jan-11 11:15N 09°14' W 079°56'0 0.1
2018-Jan-11 09:26N 09°14' W 079°56'2 5.2
2018-Jan-11 09:00N 09°16' W 079°55'0 0.9
2018-Jan-11 08:30N 09°16' W 079°55'0 0.3
2018-Jan-11 07:49N 09°17' W 079°55'0 0.9
2018-Jan-11 07:29N 09°17' W 079°55'1 2.7
2018-Jan-11 07:00N 09°18' W 079°55'4 7.3
2018-Jan-11 06:30N 09°22' W 079°55'4 7.8
2018-Jan-11 06:00N 09°26' W 079°55'2 3.3
2018-Jan-11 05:28N 09°25' W 079°57'0 0.2
2018-Jan-11 04:58N 09°26' W 079°57'0 0.0
2018-Jan-11 04:19N 09°26' W 079°57'0 0.0
2018-Jan-11 03:55N 09°26' W 079°57'0 0.0
2018-Jan-11 03:28N 09°26' W 079°57'0 0.0
2018-Jan-11 02:52N 09°26' W 079°57'0 0.0
2018-Jan-11 02:25N 09°26' W 079°57'0 0.0
2018-Jan-11 01:58N 09°26' W 079°57'0 0.0
2018-Jan-11 01:25N 09°26' W 079°57'0 0.0
2018-Jan-11 00:58N 09°26' W 079°57'0 0.0
2018-Jan-11 00:25N 09°26' W 079°57'0 0.0
2018-Jan-10 23:55N 09°26' W 079°57'0 0.0
2018-Jan-10 23:28N 09°26' W 079°57'0 0.0
2018-Jan-10 22:58N 09°26' W 079°57'0 0.1
2018-Jan-10 22:28N 09°26' W 079°57'0 0.0
2018-Jan-10 21:19N 09°26' W 079°57'0 0.0
2018-Jan-10 20:49N 09°26' W 079°57'0 0.0
2018-Jan-10 20:19N 09°26' W 079°57'0 0.0
2018-Jan-10 19:58N 09°26' W 079°57'0 0.0
2018-Jan-10 19:07N 09°26' W 079°57'0 0.0
2018-Jan-10 18:46N 09°26' W 079°57'0 0.0
2018-Jan-10 18:19N 09°26' W 079°57'0 0.0
2018-Jan-10 17:58N 09°26' W 079°57'0 0.0
2018-Jan-10 17:19N 09°26' W 079°57'0 0.0
2018-Jan-10 16:49N 09°26' W 079°57'0 0.0
2018-Jan-10 15:19N 09°26' W 079°57'0 0.1
2018-Jan-10 14:58N 09°26' W 079°57'0 0.0
2018-Jan-10 14:10N 09°26' W 079°57'0 0.0
2018-Jan-10 13:28N 09°26' W 079°57'0 0.0
2018-Jan-10 12:55N 09°26' W 079°57'0 0.0
2018-Jan-10 12:22N 09°26' W 079°57'0 0.0
2018-Jan-10 11:55N 09°26' W 079°57'0 0.0
2018-Jan-10 11:28N 09°26' W 079°57'0 0.0
2018-Jan-10 10:58N 09°26' W 079°57'0 0.0
2018-Jan-10 10:25N 09°26' W 079°57'0 0.0
2018-Jan-10 09:52N 09°26' W 079°57'0 0.0
2018-Jan-10 09:28N 09°26' W 079°57'0 0.1
2018-Jan-10 08:58N 09°26' W 079°57'0 0.2
2018-Jan-10 08:28N 09°25' W 079°57'0 0.5
2018-Jan-10 07:58N 09°26' W 079°57'0 0.9
2018-Jan-10 07:30N 09°25' W 079°56'4 8.2
2018-Jan-10 07:00N 09°29' W 079°54'510.0
2018-Jan-10 06:30N 09°34' W 079°53'510.2
2018-Jan-10 06:00N 09°39' W 079°53'  
Track history (hours):
 
Tides and Currents Weather Stations Pressure Air Temp Water Temp Dewpoint Dewpoint Depression Visibility Wind Speed Wind Dir Waves Ship Positions

British Harmony

Last reported at 2018-Jan-11 15:12 UTC. Time now 2018-Jan-22 00:40 UTC.
Position N 09°11' W 079°52'.
Warning: this ship's position is 10 days out of date.

Length 183.2 m; beam 32.2 m; draft 12.2 m.

Type: Tanker. MMSI: 232445000.

Date/timePositionNaut miles runAvg speedWind from/ knotsBaromVisibWave heightAir tempDewpointWater temp
2018-Jan-11 15:12N 09°11' W 079°52'2 8.6
2018-Jan-11 15:00N 09°12' W 079°54'3 0.8
2018-Jan-11 11:15N 09°14' W 079°56'0 0.1
2018-Jan-11 09:26N 09°14' W 079°56'2 5.2
2018-Jan-11 09:00N 09°16' W 079°55'0 0.9
2018-Jan-11 08:30N 09°16' W 079°55'0 0.3
2018-Jan-11 07:49N 09°17' W 079°55'0 0.9
2018-Jan-11 07:29N 09°17' W 079°55'1 2.7
2018-Jan-11 07:00N 09°18' W 079°55'4 7.3
2018-Jan-11 06:30N 09°22' W 079°55'4 7.8
2018-Jan-11 06:00N 09°26' W 079°55'2 3.3
2018-Jan-11 05:28N 09°25' W 079°57'0 0.2
2018-Jan-11 04:58N 09°26' W 079°57'0 0.0
2018-Jan-11 04:19N 09°26' W 079°57'0 0.0
2018-Jan-11 03:55N 09°26' W 079°57'0 0.0
2018-Jan-11 03:28N 09°26' W 079°57'0 0.0
2018-Jan-11 02:52N 09°26' W 079°57'0 0.0
2018-Jan-11 02:25N 09°26' W 079°57'0 0.0
2018-Jan-11 01:58N 09°26' W 079°57'0 0.0
2018-Jan-11 01:25N 09°26' W 079°57'0 0.0
2018-Jan-11 00:58N 09°26' W 079°57'0 0.0
2018-Jan-11 00:25N 09°26' W 079°57'0 0.0
2018-Jan-10 23:55N 09°26' W 079°57'0 0.0
2018-Jan-10 23:28N 09°26' W 079°57'0 0.0
2018-Jan-10 22:58N 09°26' W 079°57'0 0.1
2018-Jan-10 22:28N 09°26' W 079°57'0 0.0
2018-Jan-10 21:19N 09°26' W 079°57'0 0.0
2018-Jan-10 20:49N 09°26' W 079°57'0 0.0
2018-Jan-10 20:19N 09°26' W 079°57'0 0.0
2018-Jan-10 19:58N 09°26' W 079°57'0 0.0
2018-Jan-10 19:07N 09°26' W 079°57'0 0.0
2018-Jan-10 18:46N 09°26' W 079°57'0 0.0
2018-Jan-10 18:19N 09°26' W 079°57'0 0.0
2018-Jan-10 17:58N 09°26' W 079°57'0 0.0
2018-Jan-10 17:19N 09°26' W 079°57'0 0.0
2018-Jan-10 16:49N 09°26' W 079°57'0 0.0
2018-Jan-10 15:19N 09°26' W 079°57'0 0.1
2018-Jan-10 14:58N 09°26' W 079°57'0 0.0
2018-Jan-10 14:10N 09°26' W 079°57'0 0.0
2018-Jan-10 13:28N 09°26' W 079°57'0 0.0
2018-Jan-10 12:55N 09°26' W 079°57'0 0.0
2018-Jan-10 12:22N 09°26' W 079°57'0 0.0
2018-Jan-10 11:55N 09°26' W 079°57'0 0.0
2018-Jan-10 11:28N 09°26' W 079°57'0 0.0
2018-Jan-10 10:58N 09°26' W 079°57'0 0.0
2018-Jan-10 10:25N 09°26' W 079°57'0 0.0
2018-Jan-10 09:52N 09°26' W 079°57'0 0.0
2018-Jan-10 09:28N 09°26' W 079°57'0 0.1
2018-Jan-10 08:58N 09°26' W 079°57'0 0.2
2018-Jan-10 08:28N 09°25' W 079°57'0 0.5
2018-Jan-10 07:58N 09°26' W 079°57'0 0.9
2018-Jan-10 07:30N 09°25' W 079°56'4 8.2
2018-Jan-10 07:00N 09°29' W 079°54'510.0
2018-Jan-10 06:30N 09°34' W 079°53'510.2
2018-Jan-10 06:00N 09°39' W 079°53'  

Dump ship's entire track history